Flight Track Log - Related Links

Times and Time Zones

All times are in EDT time to prevent confusion due to time zone crossing. See the EJA312 flight status page for this flight to view local times or setup timezone preferences in your user account.

Time Position Orientation Groundspeed Altitude Reporting Facility
EDT Latitude Longitude Course Direction KTS MPH feet Rate Location/Type
Fri 04:51:27 PM 32.7411 -117.2247 304° West 185 213 2,300  Level Los Angeles Center
Fri 04:52:29 PM 32.7753 -117.2861 304° West 215 247 5,300 3,097 Climbing Los Angeles Center
Fri 04:53:31 PM 32.8294 -117.3631 310° West 269 310 8,700 2,903 Climbing Los Angeles Center
Fri 04:54:33 PM 32.8856 -117.4389 311° West 298 343 11,300 2,226 Climbing Los Angeles Center
Fri 04:55:35 PM 32.9497 -117.5239 312° West 334 384 13,300 1,935 Climbing Los Angeles Center
Fri 04:56:37 PM 33.0172 -117.6150 311° West 359 413 15,300 1,920 Climbing Los Angeles Center
Fri 04:57:40 PM 33.0864 -117.7078 312° West 371 427 17,300 1,920 Climbing Los Angeles Center
Fri 04:58:42 PM 33.1572 -117.8036 311° West 382 440 19,300 2,129 Climbing Los Angeles Center
Fri 04:59:44 PM 33.2278 -117.9322 303° West 385 443 21,700 2,129 Climbing Los Angeles Center
Fri 05:00:46 PM 33.3011 -118.0258 313° West 384 442 23,700 1,935 Climbing Los Angeles Center
Fri 05:01:48 PM 33.3694 -118.1228 310° West 381 438 25,700 1,790 Climbing Los Angeles Center
Fri 05:02:50 PM 33.4383 -118.2206 310° West 382 440 27,400 1,548 Climbing Los Angeles Center
Fri 05:03:52 PM 33.5092 -118.3225 310° West 391 450 28,900 1,258 Climbing Los Angeles Center
Fri 05:04:54 PM 33.5839 -118.4281 310° West 405 466 30,000 532 Climbing Los Angeles Center
Fri 05:05:56 PM 33.6625 -118.5411 310° West 432 497 30,000  Level Los Angeles Center
Fri 05:06:58 PM 33.7414 -118.6542 310° West 437 503 30,000  Level Los Angeles Center
Fri 05:08:00 PM 33.8350 -118.7889 310° West 435 501 30,000  Level Los Angeles Center
Fri 05:09:03 PM 33.9119 -118.8992 310° West 432 497 30,000  Level Los Angeles Center
Fri 05:10:05 PM 33.9892 -119.0119 310° West 435 501 30,000  Level Los Angeles Center
Fri 05:11:07 PM 34.0664 -119.1236 310° West 434 499 30,000  Level Los Angeles Center
Fri 05:12:09 PM 34.1433 -119.2347 310° West 434 499 30,000  Level Los Angeles Center
Fri 05:13:11 PM 34.2192 -119.3483 309° West 435 501 30,000  Level Los Angeles Center
Fri 05:14:13 PM 34.3117 -119.4825 310° West 435 501 30,000  Level Los Angeles Center
Fri 05:15:15 PM 34.3981 -119.5839 316° Northwest 437 503 30,000  Level Los Angeles Center
Fri 05:16:17 PM 34.4958 -119.6686 324° Northwest 433 498 30,000  Level Los Angeles Center
Fri 05:17:19 PM 34.5944 -119.7556 324° Northwest 436 502 30,000  Level Los Angeles Center
Fri 05:18:21 PM 34.7033 -119.8469 325° Northwest 438 504 30,000  Level Los Angeles Center
Fri 05:19:23 PM 34.8022 -119.9336 324° Northwest 438 504 30,000  Level Los Angeles Center
Fri 05:20:26 PM 34.9017 -120.0200 325° Northwest 439 505 30,000  Level Los Angeles Center
Fri 05:21:28 PM 35.0053 -120.1106 324° Northwest 439 505 30,000  Level Los Angeles Center
Fri 05:22:30 PM 35.1036 -120.1969 324° Northwest 438 504 30,000  Level Los Angeles Center
Fri 05:23:32 PM 35.2025 -120.2836 324° Northwest 440 506 30,000  Level Los Angeles Center
Fri 05:24:34 PM 35.3219 -120.3881 325° Northwest 442 509 30,000  Level Los Angeles Center
Fri 05:25:36 PM 35.4172 -120.4794 322° Northwest 440 506 30,000  Level Los Angeles Center
Fri 05:26:38 PM 35.5128 -120.5722 322° Northwest 441 507 30,000  Level Los Angeles Center
Fri 05:27:40 PM 35.6089 -120.6639 322° Northwest 439 505 30,000 -823 Level Los Angeles Center
Fri 05:28:42 PM 35.7114 -120.7644 321° Northwest 440 506 28,300 -2,344 Descending Los Angeles Center
Fri 05:29:48 PM 35.8292 -120.8794 322° Northwest 450 518 25,000 -2,906 Descending Oakland Center
Fri 05:30:50 PM 35.9258 -120.9731 322° Northwest 443 510 22,100 -2,780 Descending Oakland Center
Fri 05:31:51 PM 36.0164 -121.0628 321° Northwest 420 483 19,300 -2,537 Descending Oakland Center
Fri 05:32:53 PM 36.1089 -121.1525 322° Northwest 422 486 16,900 -2,390 Descending Oakland Center
Fri 05:33:54 PM 36.1964 -121.2383 322° Northwest 405 466 14,400 -2,439 Descending Oakland Center
Fri 05:34:56 PM 36.2769 -121.3192 321° Northwest 374 430 11,900 -2,419 Descending Oakland Center
Fri 05:35:58 PM 36.3414 -121.3844 321° Northwest 303 349 9,400 -2,683 Descending Oakland Center
Fri 05:36:59 PM 36.4153 -121.4575 322° Northwest 284 327 6,400 -1,756 Descending Oakland Center
Fri 05:38:01 PM 36.4711 -121.5128 321° Northwest 269 310 5,800 -726 Descending Oakland Center
Fri 05:39:03 PM 36.4972 -121.5822 295° West 237 273 4,900 -581 Descending Oakland Center
Fri 05:40:05 PM 36.5161 -121.6506 289° West 233 268 4,600 -968 Descending Oakland Center
Fri 05:41:07 PM 36.5333 -121.7000 293° West 165 190 2,900 -1,230 Descending Northern Cal TRACON
Fri 05:42:07 PM 36.5500 -121.7500 293° West 135 155 2,100 -843 Descending Northern Cal TRACON
Fri 05:43:08 PM 36.5667 -121.7833 302° West 125 144 1,200 -885 Descending Northern Cal TRACON

Login

Don't have an account? Register now (free) for customized features, flight alerts, and more!